Time;durP1;ratioP1;P1;durP2;ratioP2;P2;SDS_P1;SDS_P2;PMS_P1;PMS_P2;Temp;Humidity;BMP_temperature;BMP_pressure;BME280_temperature;BME280_humidity;BME280_pressure;Samples;Min_cycle;Max_cycle;Signal;HPM_P1;HPM_P2
2023/09/22 00:01:33;;;;;;;7.70;0.90;;;15.70;99.90;;;;;;5030658;28;20502;-64
2023/09/22 00:04:02;;;;;;;6.27;0.70;;;15.70;99.90;;;;;;5030426;28;21078;-65
2023/09/22 00:06:30;;;;;;;7.40;1.33;;;15.70;99.90;;;;;;5029945;28;20900;-64
2023/09/22 00:08:58;;;;;;;10.00;0.80;;;15.70;99.90;;;;;;5030120;28;20522;-65
2023/09/22 00:11:26;;;;;;;9.50;1.10;;;15.70;99.90;;;;;;5029090;28;20489;-65
2023/09/22 00:13:54;;;;;;;7.80;0.73;;;15.60;99.90;;;;;;5030074;28;20532;-64
2023/09/22 00:16:22;;;;;;;7.40;0.90;;;15.70;99.90;;;;;;5029599;28;21150;-64
2023/09/22 00:18:52;;;;;;;6.67;1.00;;;15.60;99.90;;;;;;5029870;28;20465;-64
2023/09/22 00:21:20;;;;;;;7.80;1.00;;;15.60;99.90;;;;;;5030119;28;20475;-64
2023/09/22 00:23:48;;;;;;;6.60;0.90;;;15.50;99.90;;;;;;5030177;28;20948;-64
2023/09/22 00:26:16;;;;;;;7.10;0.90;;;15.50;99.90;;;;;;5030286;28;20474;-63
2023/09/22 00:28:44;;;;;;;6.50;0.80;;;15.50;99.90;;;;;;5030146;28;20468;-65
2023/09/22 00:31:12;;;;;;;7.10;1.17;;;15.40;99.90;;;;;;5030029;28;20456;-64
2023/09/22 00:33:40;;;;;;;7.00;1.03;;;15.30;99.90;;;;;;5029938;28;20954;-64
2023/09/22 00:36:09;;;;;;;6.43;0.90;;;15.30;99.90;;;;;;5028820;28;20441;-62
2023/09/22 00:38:37;;;;;;;6.90;0.97;;;15.20;99.90;;;;;;5028881;28;20467;-63
2023/09/22 00:41:06;;;;;;;7.70;0.73;;;15.20;99.90;;;;;;5029709;28;20446;-63
2023/09/22 00:43:33;;;;;;;6.33;0.90;;;15.20;99.90;;;;;;5029305;28;20930;-64
2023/09/22 00:46:01;;;;;;;8.20;0.80;;;15.00;99.90;;;;;;5029663;28;20477;-63
2023/09/22 00:48:31;;;;;;;7.30;0.90;;;15.00;99.90;;;;;;5028852;28;20558;-64
2023/09/22 00:51:01;;;;;;;6.50;0.97;;;15.00;99.90;;;;;;5029560;28;20442;-64
2023/09/22 00:53:33;;;;;;;6.97;0.93;;;15.00;99.90;;;;;;5028907;28;20509;-64
2023/09/22 00:56:03;;;;;;;6.83;1.00;;;14.90;99.90;;;;;;5029661;28;20488;-64
2023/09/22 00:58:32;;;;;;;6.30;1.00;;;14.90;99.90;;;;;;5028711;28;20479;-64
2023/09/22 01:01:00;;;;;;;6.97;0.80;;;14.90;99.90;;;;;;5029331;28;20528;-63
2023/09/22 01:03:29;;;;;;;7.57;1.00;;;14.80;99.90;;;;;;5029495;28;20456;-63
2023/09/22 01:05:57;;;;;;;6.83;1.17;;;14.80;99.90;;;;;;5029116;28;20488;-64
2023/09/22 01:08:25;;;;;;;6.50;0.83;;;14.80;99.90;;;;;;5027799;28;20476;-64
2023/09/22 01:10:56;;;;;;;7.37;1.07;;;14.70;99.90;;;;;;5029178;28;20445;-64
2023/09/22 01:13:24;;;;;;;6.97;1.00;;;14.60;99.90;;;;;;5029047;28;20464;-62
2023/09/22 01:15:52;;;;;;;8.00;0.93;;;14.60;99.90;;;;;;5029375;28;20433;-62
2023/09/22 01:18:20;;;;;;;6.27;0.80;;;14.60;99.90;;;;;;5028828;28;20444;-61
2023/09/22 01:20:48;;;;;;;6.70;0.90;;;14.60;99.90;;;;;;5029244;28;20484;-62
2023/09/22 01:23:17;;;;;;;8.27;0.97;;;14.50;99.90;;;;;;5028739;28;20456;-62
2023/09/22 01:25:46;;;;;;;6.97;1.00;;;14.50;99.90;;;;;;5029145;28;20473;-60
2023/09/22 01:28:15;;;;;;;7.60;1.00;;;14.50;99.90;;;;;;5028558;28;20476;-62
2023/09/22 01:30:43;;;;;;;6.50;1.10;;;14.40;99.90;;;;;;5029166;28;20455;-62
2023/09/22 01:33:11;;;;;;;6.30;0.87;;;14.40;99.90;;;;;;5029210;28;20547;-61
2023/09/22 01:35:39;;;;;;;6.77;1.10;;;14.30;99.90;;;;;;5028878;28;20444;-63
2023/09/22 01:38:12;;;;;;;6.80;0.97;;;14.40;99.90;;;;;;5030980;28;20449;-62
2023/09/22 01:40:41;;;;;;;6.60;1.03;;;14.30;99.90;;;;;;5028693;28;20536;-63
2023/09/22 01:43:10;;;;;;;8.50;1.20;;;14.30;99.90;;;;;;5029213;28;20448;-63
2023/09/22 01:45:38;;;;;;;6.60;0.90;;;14.20;99.90;;;;;;5028697;28;20998;-63
2023/09/22 01:48:08;;;;;;;7.30;0.97;;;14.20;99.90;;;;;;5028551;28;20534;-63
2023/09/22 01:50:37;;;;;;;7.57;1.17;;;14.20;99.90;;;;;;5028962;28;20535;-63
2023/09/22 01:53:05;;;;;;;7.57;1.10;;;14.20;99.90;;;;;;5028924;28;20524;-63
2023/09/22 01:55:33;;;;;;;6.50;0.83;;;14.30;99.90;;;;;;5028775;28;20448;-63
2023/09/22 01:58:04;;;;;;;6.63;1.10;;;14.20;99.90;;;;;;5028396;28;20456;-63
2023/09/22 02:00:33;;;;;;;6.87;1.00;;;14.20;99.90;;;;;;5028700;28;20444;-62
2023/09/22 02:03:01;;;;;;;10.03;1.80;;;14.10;99.90;;;;;;5027901;28;20449;-62
2023/09/22 02:05:29;;;;;;;7.57;1.20;;;14.00;99.90;;;;;;5028414;28;20480;-63
2023/09/22 02:07:58;;;;;;;6.60;0.90;;;13.90;99.90;;;;;;5028437;28;20447;-63
2023/09/22 02:10:26;;;;;;;6.80;1.00;;;13.90;99.90;;;;;;5028715;28;20477;-63
2023/09/22 02:12:54;;;;;;;6.60;0.90;;;13.90;99.90;;;;;;5028795;28;20499;-62
2023/09/22 02:15:23;;;;;;;8.67;0.93;;;13.90;99.90;;;;;;5028629;28;20456;-63
2023/09/22 02:17:52;;;;;;;7.13;1.67;;;14.00;99.90;;;;;;5028457;28;20506;-62
2023/09/22 02:20:23;;;;;;;7.80;1.20;;;14.00;99.90;;;;;;5032384;28;20473;-63
2023/09/22 02:22:54;;;;;;;8.97;1.50;;;13.90;99.90;;;;;;5032490;28;20480;-63
2023/09/22 02:25:22;;;;;;;6.57;1.03;;;13.90;99.90;;;;;;5032352;28;20481;-63
2023/09/22 02:27:51;;;;;;;9.10;1.43;;;13.90;99.90;;;;;;5031712;28;20484;-63
2023/09/22 02:30:19;;;;;;;6.53;1.30;;;13.90;99.90;;;;;;5032031;28;20472;-63
2023/09/22 02:32:50;;;;;;;6.60;0.93;;;14.00;99.90;;;;;;5023966;28;20456;-63
2023/09/22 02:35:20;;;;;;;6.63;0.87;;;13.90;99.90;;;;;;5031761;28;20440;-63
2023/09/22 02:37:48;;;;;;;6.30;0.93;;;14.00;99.90;;;;;;5025074;28;20460;-63
2023/09/22 02:40:16;;;;;;;6.17;0.87;;;14.00;99.90;;;;;;5031839;28;20468;-63
2023/09/22 02:42:44;;;;;;;7.17;1.37;;;14.00;99.90;;;;;;5031497;28;20460;-63
2023/09/22 02:45:13;;;;;;;6.40;0.93;;;14.00;99.90;;;;;;5031410;28;20448;-63
2023/09/22 02:47:42;;;;;;;6.70;0.90;;;13.90;99.90;;;;;;5031090;28;20455;-63
2023/09/22 02:50:17;;;;;;;9.33;1.20;;;13.80;99.90;;;;;;5032274;28;20468;-63
2023/09/22 02:52:45;;;;;;;6.97;1.20;;;13.80;99.90;;;;;;5031947;28;20476;-63
2023/09/22 02:55:13;;;;;;;7.33;1.70;;;13.90;99.90;;;;;;5031879;28;21018;-63
2023/09/22 02:57:42;;;;;;;7.03;1.37;;;14.00;99.90;;;;;;5031105;28;20880;-63
2023/09/22 03:00:17;;;;;;;7.23;1.47;;;14.00;99.90;;;;;;5032244;28;20918;-62
2023/09/22 03:02:46;;;;;;;8.67;1.27;;;13.90;99.90;;;;;;5031495;28;20444;-64
2023/09/22 03:05:16;;;;;;;6.40;0.87;;;14.00;99.90;;;;;;5033486;28;20510;-63
2023/09/22 03:07:46;;;;;;;7.00;1.37;;;14.00;99.90;;;;;;5031166;28;21226;-63
2023/09/22 03:10:14;;;;;;;11.30;1.00;;;13.90;99.90;;;;;;5031461;28;20523;-63
2023/09/22 03:12:42;;;;;;;7.10;1.33;;;13.90;99.90;;;;;;5031704;28;22561;-63
2023/09/22 03:15:12;;;;;;;6.30;0.80;;;13.90;99.90;;;;;;5031637;28;20460;-63
2023/09/22 03:17:41;;;;;;;7.60;1.30;;;13.90;99.90;;;;;;5031024;28;21090;-63
2023/09/22 03:20:12;;;;;;;6.50;1.10;;;13.90;99.90;;;;;;5031449;28;20846;-63
2023/09/22 03:22:43;;;;;;;7.40;1.13;;;13.90;99.90;;;;;;5030932;28;20863;-63
2023/09/22 03:25:11;;;;;;;9.63;1.30;;;14.00;99.90;;;;;;5030956;28;20479;-63
2023/09/22 03:27:39;;;;;;;8.50;1.40;;;14.10;99.90;;;;;;5030422;28;20857;-63
2023/09/22 03:30:09;;;;;;;6.67;1.00;;;14.10;99.90;;;;;;5030352;28;20461;-63
2023/09/22 03:32:39;;;;;;;7.00;0.90;;;14.10;99.90;;;;;;5031033;28;20445;-64
2023/09/22 03:35:08;;;;;;;6.50;1.10;;;14.10;99.90;;;;;;5030597;28;20441;-64
2023/09/22 03:37:37;;;;;;;6.63;1.20;;;14.10;99.90;;;;;;5030484;28;20871;-63
2023/09/22 03:40:13;;;;;;;7.87;1.23;;;14.10;99.90;;;;;;5030714;28;20900;-64
2023/09/22 03:42:41;;;;;;;7.23;1.20;;;14.00;99.90;;;;;;5030594;28;20498;-64
2023/09/22 03:45:11;;;;;;;9.80;1.20;;;14.00;99.90;;;;;;5030778;28;20449;-64
2023/09/22 03:47:39;;;;;;;7.10;1.00;;;14.10;99.90;;;;;;5029952;28;20564;-64
2023/09/22 03:50:08;;;;;;;7.57;1.40;;;14.00;99.90;;;;;;5031106;28;20477;-64
2023/09/22 03:52:38;;;;;;;7.60;1.47;;;14.10;99.90;;;;;;5030240;28;20449;-63
2023/09/22 03:55:08;;;;;;;7.53;1.20;;;14.00;99.90;;;;;;5030794;28;20815;-63
2023/09/22 03:57:36;;;;;;;7.10;1.10;;;14.00;99.90;;;;;;5030069;28;20440;-64
2023/09/22 04:00:08;;;;;;;8.10;1.30;;;14.10;99.90;;;;;;5030325;28;20465;-64
2023/09/22 04:02:36;;;;;;;7.40;1.20;;;14.10;99.90;;;;;;5030560;28;20442;-63
2023/09/22 04:05:05;;;;;;;7.20;1.00;;;14.00;99.90;;;;;;5030686;28;20453;-64
2023/09/22 04:07:32;;;;;;;8.10;1.60;;;14.10;99.90;;;;;;5029799;28;20563;-64
2023/09/22 04:10:00;;;;;;;9.73;1.40;;;14.10;99.90;;;;;;5029977;28;21107;-64
2023/09/22 04:12:30;;;;;;;7.40;0.90;;;14.10;99.90;;;;;;5029953;28;20448;-63
2023/09/22 04:14:59;;;;;;;9.00;1.30;;;14.10;99.90;;;;;;5030251;28;20455;-63
2023/09/22 04:17:27;;;;;;;7.37;1.30;;;14.00;99.90;;;;;;5029490;28;20497;-63
2023/09/22 04:19:55;;;;;;;6.47;1.00;;;14.10;99.90;;;;;;5030180;28;20476;-64
2023/09/22 04:22:23;;;;;;;6.53;1.07;;;14.10;99.90;;;;;;5030101;28;20462;-63
2023/09/22 04:25:00;;;;;;;7.37;2.33;;;14.00;99.90;;;;;;5022302;28;20444;-64
2023/09/22 04:27:32;;;;;;;7.23;1.30;;;14.10;99.90;;;;;;5029267;28;20901;-63
2023/09/22 04:30:03;;;;;;;11.03;1.53;;;14.10;99.90;;;;;;5030158;28;20499;-64
2023/09/22 04:32:33;;;;;;;7.33;1.40;;;14.10;99.90;;;;;;5029597;28;20464;-66
2023/09/22 04:35:02;;;;;;;8.53;1.40;;;14.10;99.90;;;;;;5029970;28;20475;-66
2023/09/22 04:37:30;;;;;;;6.80;1.27;;;14.20;99.90;;;;;;5028938;28;20463;-64
2023/09/22 04:39:58;;;;;;;6.90;1.30;;;14.10;99.90;;;;;;5035314;28;20462;-65
2023/09/22 04:42:27;;;;;;;8.80;0.90;;;14.10;99.90;;;;;;5029605;28;20454;-64
2023/09/22 04:44:55;;;;;;;6.90;1.47;;;14.20;99.90;;;;;;5029615;28;20462;-65
2023/09/22 04:47:24;;;;;;;7.20;1.30;;;14.20;99.90;;;;;;5028989;28;20481;-66
2023/09/22 04:49:53;;;;;;;7.30;1.63;;;14.20;99.90;;;;;;5029596;28;20465;-63
2023/09/22 04:52:21;;;;;;;6.77;1.37;;;14.20;99.90;;;;;;5029321;28;20445;-64
2023/09/22 04:54:49;;;;;;;6.83;1.37;;;14.30;99.90;;;;;;5029937;28;20441;-64
2023/09/22 04:57:17;;;;;;;9.00;1.33;;;14.30;99.90;;;;;;5028921;28;20476;-65
2023/09/22 04:59:45;;;;;;;7.13;1.20;;;14.20;99.90;;;;;;5029591;28;20890;-63
2023/09/22 05:02:13;;;;;;;6.80;1.30;;;14.20;99.90;;;;;;5029271;28;20489;-63
2023/09/22 05:04:43;;;;;;;9.00;1.77;;;14.10;99.90;;;;;;5029078;28;20503;-63
2023/09/22 05:07:11;;;;;;;7.90;2.10;;;14.20;99.90;;;;;;5029072;28;20513;-62
2023/09/22 05:09:40;;;;;;;12.90;1.50;;;14.20;99.90;;;;;;5029605;28;20907;-63
2023/09/22 05:12:09;;;;;;;7.80;1.20;;;14.20;99.90;;;;;;5029420;28;20457;-63
2023/09/22 05:14:37;;;;;;;6.57;1.13;;;14.20;99.90;;;;;;5029285;28;20448;-64
2023/09/22 05:17:05;;;;;;;7.77;1.40;;;14.20;99.90;;;;;;5028509;28;20456;-64
2023/09/22 05:19:33;;;;;;;6.80;1.23;;;14.10;99.90;;;;;;5029202;28;20467;-64
2023/09/22 05:22:03;;;;;;;6.83;1.10;;;14.20;99.90;;;;;;5033385;28;20450;-63
2023/09/22 05:24:31;;;;;;;7.47;1.10;;;14.20;99.90;;;;;;5027013;28;20835;-63
2023/09/22 05:26:59;;;;;;;7.17;1.30;;;14.30;99.90;;;;;;5041253;28;20478;-64
2023/09/22 05:29:27;;;;;;;11.53;1.60;;;14.30;99.90;;;;;;5028425;28;20477;-63
2023/09/22 05:31:55;;;;;;;7.80;1.50;;;14.20;99.90;;;;;;5029397;28;20536;-64
2023/09/22 05:34:23;;;;;;;7.30;1.10;;;14.20;99.90;;;;;;5027852;28;20453;-64
2023/09/22 05:36:51;;;;;;;8.50;1.47;;;14.20;99.90;;;;;;5028729;28;20445;-64
2023/09/22 05:39:21;;;;;;;6.47;1.10;;;14.20;99.90;;;;;;5029018;28;20473;-64
2023/09/22 05:41:49;;;;;;;6.53;1.47;;;14.20;99.90;;;;;;5029063;28;21144;-64
2023/09/22 05:44:17;;;;;;;6.80;1.10;;;14.30;99.90;;;;;;5029187;28;20476;-64
2023/09/22 05:46:45;;;;;;;7.85;1.30;;;14.30;99.90;;;;;;5028505;28;21128;-64
2023/09/22 05:49:14;;;;;;;9.80;1.40;;;14.30;99.90;;;;;;5028842;28;20476;-64
2023/09/22 05:51:42;;;;;;;6.60;1.20;;;14.40;99.90;;;;;;5029084;28;20531;-64
2023/09/22 05:54:10;;;;;;;8.20;1.60;;;14.40;99.90;;;;;;5031062;28;20956;-64
2023/09/22 05:56:40;;;;;;;8.73;1.70;;;14.40;99.90;;;;;;5032326;28;20884;-64
2023/09/22 05:59:08;;;;;;;8.47;1.93;;;14.40;99.90;;;;;;5032883;28;20466;-64
2023/09/22 06:01:37;;;;;;;8.77;1.70;;;14.30;99.90;;;;;;5032812;28;20548;-64
2023/09/22 06:04:06;;;;;;;10.37;1.80;;;14.30;99.90;;;;;;5033016;28;20547;-64
2023/09/22 06:06:34;;;;;;;7.47;1.77;;;14.30;99.90;;;;;;5032242;28;20449;-64
2023/09/22 06:09:04;;;;;;;8.00;1.60;;;14.40;99.90;;;;;;5032364;28;20492;-64
2023/09/22 06:11:37;;;;;;;7.37;1.57;;;14.40;99.90;;;;;;5032710;28;20448;-64
2023/09/22 06:14:07;;;;;;;7.53;1.73;;;14.40;99.90;;;;;;5032603;28;20449;-64
2023/09/22 06:16:35;;;;;;;7.63;1.83;;;14.50;99.90;;;;;;5032263;28;20461;-64
2023/09/22 06:19:04;;;;;;;8.20;1.60;;;14.50;99.90;;;;;;5032444;28;20470;-64
2023/09/22 06:21:32;;;;;;;8.20;1.60;;;14.50;99.90;;;;;;5032276;28;20446;-63
2023/09/22 06:24:00;;;;;;;8.93;1.80;;;14.60;99.90;;;;;;5032509;28;20485;-64
2023/09/22 06:26:28;;;;;;;7.40;1.70;;;14.70;99.90;;;;;;5032269;28;20569;-63
2023/09/22 06:28:56;;;;;;;8.83;1.50;;;14.60;99.90;;;;;;5024279;28;20534;-64
2023/09/22 06:31:25;;;;;;;6.80;1.20;;;14.60;99.90;;;;;;5032393;28;20476;-64
2023/09/22 06:33:54;;;;;;;7.07;1.27;;;14.50;99.90;;;;;;5032224;28;20838;-64
2023/09/22 06:36:22;;;;;;;7.40;1.60;;;14.50;99.90;;;;;;5032085;28;20477;-63
2023/09/22 06:38:51;;;;;;;7.07;1.20;;;14.50;99.90;;;;;;5032017;28;20465;-62
2023/09/22 06:41:19;;;;;;;8.33;1.60;;;14.50;99.90;;;;;;5032353;28;20457;-63
2023/09/22 06:43:47;;;;;;;7.50;1.60;;;14.40;99.90;;;;;;5032370;28;20460;-63
2023/09/22 06:46:26;;;;;;;9.67;1.90;;;14.30;99.90;;;;;;5031789;28;20854;-63
2023/09/22 06:48:55;;;;;;;7.60;1.60;;;14.30;99.90;;;;;;5031578;28;20484;-63
2023/09/22 06:51:23;;;;;;;9.97;2.30;;;14.20;99.90;;;;;;5032108;28;20462;-63
2023/09/22 06:53:51;;;;;;;12.43;2.40;;;14.40;99.90;;;;;;5031956;28;20444;-63
2023/09/22 06:56:20;;;;;;;9.03;1.87;;;14.50;99.90;;;;;;5031830;28;20527;-63
2023/09/22 06:58:53;;;;;;;7.67;1.80;;;14.70;99.90;;;;;;5031799;28;20459;-63
2023/09/22 07:01:21;;;;;;;8.57;1.27;;;14.80;99.90;;;;;;5031945;28;20444;-63
2023/09/22 07:03:51;;;;;;;8.37;1.70;;;14.90;99.90;;;;;;5031874;28;20495;-63
2023/09/22 07:06:19;;;;;;;9.70;2.20;;;15.00;99.90;;;;;;5030502;28;20448;-64
2023/09/22 07:08:48;;;;;;;9.87;2.27;;;15.10;99.90;;;;;;5031175;28;20554;-64
2023/09/22 07:11:17;;;;;;;10.00;1.87;;;15.20;99.90;;;;;;5031766;28;20863;-64
2023/09/22 07:13:45;;;;;;;8.00;1.80;;;15.40;99.90;;;;;;5031441;28;20944;-64
2023/09/22 07:16:13;;;;;;;7.47;1.40;;;15.50;99.90;;;;;;5031839;28;20445;-64
2023/09/22 07:18:41;;;;;;;11.23;1.50;;;15.50;99.90;;;;;;5030936;28;20464;-64
2023/09/22 07:21:11;;;;;;;7.33;1.50;;;15.50;99.90;;;;;;5031693;28;20488;-64
2023/09/22 07:23:39;;;;;;;8.47;1.77;;;15.50;99.90;;;;;;5031149;28;20995;-64
2023/09/22 07:26:09;;;;;;;8.70;1.90;;;15.50;99.90;;;;;;5031258;28;20449;-64
2023/09/22 07:28:37;;;;;;;9.13;1.60;;;15.50;99.90;;;;;;5030808;28;20995;-64
2023/09/22 07:31:12;;;;;;;8.27;1.47;;;15.70;99.90;;;;;;5031729;28;20815;-62
2023/09/22 07:33:40;;;;;;;10.40;1.47;;;15.80;99.90;;;;;;5031708;28;20451;-63
2023/09/22 07:36:09;;;;;;;7.60;1.60;;;15.80;99.90;;;;;;5031685;28;20535;-63
2023/09/22 07:38:38;;;;;;;8.50;2.63;;;15.70;99.90;;;;;;5030806;28;20457;-63
2023/09/22 07:41:06;;;;;;;6.83;1.50;;;15.70;99.90;;;;;;5031635;28;20448;-63
2023/09/22 07:43:35;;;;;;;7.60;1.30;;;15.90;99.90;;;;;;5031186;28;20453;-63
2023/09/22 07:46:06;;;;;;;6.70;1.50;;;16.00;99.90;;;;;;5031036;28;20871;-63
2023/09/22 07:48:36;;;;;;;9.50;1.70;;;15.90;99.90;;;;;;5030207;28;20999;-64
2023/09/22 07:51:05;;;;;;;8.20;1.67;;;15.90;99.90;;;;;;5030790;28;20948;-63
2023/09/22 07:53:33;;;;;;;7.20;1.80;;;15.80;99.90;;;;;;5030562;28;20456;-62
2023/09/22 07:56:02;;;;;;;8.50;1.70;;;15.70;99.90;;;;;;5030997;28;20599;-65
2023/09/22 07:58:31;;;;;;;7.83;1.30;;;15.70;99.90;;;;;;5031013;28;20468;-65
2023/09/22 08:00:59;;;;;;;10.27;1.90;;;15.70;99.90;;;;;;5023269;28;20506;-63
2023/09/22 08:03:28;;;;;;;6.50;1.50;;;15.60;99.90;;;;;;5030938;28;20234;-64
2023/09/22 08:05:56;;;;;;;7.70;1.70;;;15.50;99.90;;;;;;5031280;28;20451;-65
2023/09/22 08:08:25;;;;;;;8.63;1.43;;;15.60;99.90;;;;;;5030436;28;20496;-66
2023/09/22 08:10:55;;;;;;;7.33;1.30;;;15.70;99.90;;;;;;5030998;28;20537;-65
2023/09/22 08:13:25;;;;;;;6.97;1.40;;;15.70;99.90;;;;;;5031038;28;20463;-67
2023/09/22 08:15:52;;;;;;;9.30;1.60;;;15.70;99.90;;;;;;5030511;28;20476;-65
2023/09/22 08:18:20;;;;;;;7.37;1.53;;;15.70;99.90;;;;;;5029970;28;20452;-65
2023/09/22 08:20:48;;;;;;;6.30;1.20;;;15.70;99.90;;;;;;5030849;28;20449;-64
2023/09/22 08:23:16;;;;;;;7.00;1.23;;;15.90;99.90;;;;;;5030407;28;20457;-63
2023/09/22 08:25:45;;;;;;;7.00;1.30;;;15.90;99.90;;;;;;5030548;28;20873;-64
2023/09/22 08:28:14;;;;;;;7.53;1.67;;;16.00;99.90;;;;;;5030052;28;20495;-64
2023/09/22 08:30:43;;;;;;;7.33;1.20;;;16.10;99.90;;;;;;5030328;28;20960;-65
2023/09/22 08:33:11;;;;;;;7.50;1.50;;;16.40;99.90;;;;;;5030788;28;20444;-63
2023/09/22 08:35:40;;;;;;;6.70;1.30;;;16.60;99.90;;;;;;5030133;28;20945;-64
2023/09/22 08:38:29;;;;;;;6.90;1.20;;;17.00;99.90;;;;;;5030111;28;20473;-64
2023/09/22 08:40:58;;;;;;;8.50;1.60;;;17.50;99.90;;;;;;5029885;28;20445;-63
2023/09/22 08:43:27;;;;;;;7.33;1.43;;;17.70;99.90;;;;;;5030027;28;20956;-64
2023/09/22 08:45:57;;;;;;;11.17;1.13;;;17.70;99.90;;;;;;5029993;28;20441;-65
2023/09/22 08:48:25;;;;;;;7.80;1.67;;;17.80;99.90;;;;;;5029317;28;20469;-63
2023/09/22 08:50:54;;;;;;;7.83;1.07;;;17.70;99.90;;;;;;5029851;28;20457;-64
2023/09/22 08:53:22;;;;;;;8.60;1.60;;;17.70;99.90;;;;;;5029914;28;20474;-64
2023/09/22 08:55:51;;;;;;;6.93;1.30;;;17.80;99.90;;;;;;5029677;28;20449;-63
2023/09/22 08:58:19;;;;;;;7.57;1.40;;;17.80;99.90;;;;;;5029402;28;20459;-65
2023/09/22 09:00:48;;;;;;;6.97;1.63;;;17.90;99.90;;;;;;5029989;28;20464;-64
2023/09/22 09:03:20;;;;;;;9.83;1.30;;;18.00;99.90;;;;;;5030203;28;20987;-63
2023/09/22 09:05:49;;;;;;;7.27;1.50;;;18.20;99.90;;;;;;5030127;28;20455;-64
2023/09/22 09:08:19;;;;;;;8.13;1.10;;;18.30;99.90;;;;;;5029515;28;21068;-64
2023/09/22 09:10:48;;;;;;;8.63;0.93;;;18.10;99.90;;;;;;5029953;28;20932;-65
2023/09/22 09:13:18;;;;;;;6.90;0.93;;;18.00;99.90;;;;;;5030129;28;20453;-64
2023/09/22 09:15:47;;;;;;;8.20;0.97;;;18.00;99.90;;;;;;5029969;28;20612;-63
2023/09/22 09:18:19;;;;;;;6.93;1.00;;;17.80;99.90;;;;;;5029430;28;20502;-64
2023/09/22 09:20:49;;;;;;;7.13;0.90;;;17.70;99.90;;;;;;5029476;28;20447;-63
2023/09/22 09:23:18;;;;;;;6.80;0.90;;;17.80;99.90;;;;;;5029517;28;20540;-63
2023/09/22 09:25:48;;;;;;;6.20;0.90;;;17.80;99.90;;;;;;5029689;28;20502;-64
2023/09/22 09:28:17;;;;;;;6.00;0.90;;;18.00;99.90;;;;;;5028593;28;20457;-64
2023/09/22 09:30:51;;;;;;;7.07;1.30;;;18.00;99.90;;;;;;5029542;28;20480;-65
2023/09/22 09:33:26;;;;;;;6.90;1.03;;;18.20;99.90;;;;;;5029757;28;20476;-65
2023/09/22 09:35:55;;;;;;;7.53;1.13;;;18.20;99.90;;;;;;5029499;28;21005;-65
2023/09/22 09:38:27;;;;;;;7.63;1.40;;;18.20;99.90;;;;;;5028856;28;20932;-64
2023/09/22 09:40:56;;;;;;;9.77;1.10;;;18.20;99.90;;;;;;5029491;28;20441;-65
2023/09/22 09:43:25;;;;;;;6.30;0.87;;;18.00;99.90;;;;;;5029554;28;20459;-64
2023/09/22 09:45:57;;;;;;;7.13;1.00;;;17.80;99.90;;;;;;5029193;28;20449;-65
2023/09/22 09:48:28;;;;;;;6.67;0.80;;;17.60;99.90;;;;;;5028947;28;20496;-66
2023/09/22 09:50:58;;;;;;;5.90;0.73;;;17.40;99.90;;;;;;5029307;28;20483;-65
2023/09/22 09:53:36;;;;;;;6.30;0.90;;;17.30;99.90;;;;;;5029958;28;20500;-65
2023/09/22 09:56:05;;;;;;;6.53;1.10;;;17.30;99.90;;;;;;5022194;28;20433;-66
2023/09/22 09:58:38;;;;;;;8.57;1.10;;;17.70;99.90;;;;;;5029023;28;20492;-66
2023/09/22 10:01:07;;;;;;;6.93;0.80;;;18.20;99.90;;;;;;5021998;28;20471;-64
2023/09/22 10:03:39;;;;;;;6.73;1.53;;;18.60;99.90;;;;;;5029178;28;20941;-65
2023/09/22 10:06:10;;;;;;;6.53;1.00;;;18.70;99.90;;;;;;5029343;28;20452;-64
2023/09/22 10:08:39;;;;;;;7.30;0.80;;;18.80;99.90;;;;;;5028571;28;20496;-66
2023/09/22 10:11:09;;;;;;;7.77;0.93;;;18.50;99.90;;;;;;5029525;28;20563;-65
2023/09/22 10:13:38;;;;;;;7.47;1.30;;;18.30;99.90;;;;;;5029019;28;20536;-64
2023/09/22 10:16:08;;;;;;;6.40;0.90;;;18.30;99.90;;;;;;5029317;28;20479;-65
2023/09/22 10:18:52;;;;;;;6.33;1.07;;;18.50;99.90;;;;;;5028481;28;20522;-64
2023/09/22 10:21:39;;;;;;;7.80;1.00;;;18.50;99.90;;;;;;5029223;28;20865;-64
2023/09/22 10:24:19;;;;;;;5.80;0.80;;;18.30;99.90;;;;;;5029262;28;20451;-65
2023/09/22 10:27:08;;;;;;;6.03;0.70;;;18.10;99.90;;;;;;5028599;28;20441;-64
2023/09/22 10:29:52;;;;;;;6.63;1.20;;;18.20;99.90;;;;;;5028576;28;20480;-65
2023/09/22 10:32:27;;;;;;;6.00;0.80;;;18.50;99.90;;;;;;5029117;28;20971;-65
2023/09/22 10:35:00;;;;;;;6.33;1.00;;;18.80;99.90;;;;;;5028750;28;20448;-64
2023/09/22 10:37:31;;;;;;;7.20;1.10;;;19.30;99.90;;;;;;5028545;28;20448;-65
2023/09/22 10:40:08;;;;;;;6.40;0.80;;;19.70;99.90;;;;;;5030397;28;20461;-65
2023/09/22 10:42:42;;;;;;;6.10;0.70;;;20.20;99.90;;;;;;5032465;28;20449;-64
2023/09/22 10:45:11;;;;;;;7.27;1.00;;;21.20;99.90;;;;;;5030928;28;20479;-65
2023/09/22 10:47:43;;;;;;;6.30;1.00;;;22.10;99.90;;;;;;5028447;28;21055;-63
2023/09/22 10:50:18;;;;;;;6.53;0.80;;;22.70;99.90;;;;;;5030640;28;20480;-65
2023/09/22 10:52:52;;;;;;;6.00;0.57;;;23.50;99.90;;;;;;5030796;28;20506;-65
2023/09/22 10:55:28;;;;;;;6.67;0.60;;;23.70;99.90;;;;;;5030734;28;20445;-65
2023/09/22 10:57:57;;;;;;;7.20;0.67;;;23.90;99.90;;;;;;5029548;28;20449;-65
2023/09/22 11:00:26;;;;;;;6.07;0.70;;;23.70;99.90;;;;;;5030898;28;20500;-65
2023/09/22 11:02:58;;;;;;;6.10;0.60;;;23.60;99.90;;;;;;5031067;28;20996;-65
2023/09/22 11:05:27;;;;;;;6.20;0.70;;;23.50;99.90;;;;;;5031657;28;20440;-66
2023/09/22 11:07:56;;;;;;;6.77;0.97;;;22.90;99.90;;;;;;5031346;28;20445;-66
2023/09/22 11:10:24;;;;;;;7.10;0.93;;;22.30;99.90;;;;;;5031825;28;20567;-65
2023/09/22 11:12:54;;;;;;;6.60;0.90;;;22.10;99.90;;;;;;5029497;28;20512;-64
2023/09/22 11:15:22;;;;;;;6.70;1.03;;;21.70;99.90;;;;;;5031673;28;20471;-65
2023/09/22 11:17:50;;;;;;;6.00;0.77;;;21.50;99.90;;;;;;5030868;28;20473;-65
2023/09/22 11:20:22;;;;;;;10.03;1.20;;;21.60;99.90;;;;;;5031946;28;20468;-65
2023/09/22 11:22:52;;;;;;;6.40;0.77;;;21.50;99.90;;;;;;5027822;28;21184;-66
2023/09/22 11:25:21;;;;;;;6.60;0.93;;;21.50;99.90;;;;;;5029597;28;20534;-66
2023/09/22 11:27:50;;;;;;;6.43;0.70;;;21.20;99.90;;;;;;5028917;28;20510;-67
2023/09/22 11:30:25;;;;;;;6.30;0.70;;;21.00;99.90;;;;;;5031386;28;20484;-65
2023/09/22 11:32:54;;;;;;;6.50;0.90;;;21.20;99.90;;;;;;5031566;28;20544;-64
2023/09/22 11:35:32;;;;;;;7.90;0.90;;;21.10;99.90;;;;;;5031534;28;20448;-65
2023/09/22 11:38:02;;;;;;;6.60;0.90;;;21.00;99.90;;;;;;5031448;28;20479;-64
2023/09/22 11:40:39;;;;;;;6.27;0.70;;;20.60;99.90;;;;;;5031743;28;20515;-63
2023/09/22 11:43:07;;;;;;;6.20;0.70;;;20.30;99.90;;;;;;5024394;28;20443;-65
2023/09/22 11:45:35;;;;;;;6.30;0.90;;;20.40;99.90;;;;;;5031605;28;20528;-67
2023/09/22 11:48:04;;;;;;;5.90;0.70;;;20.70;99.90;;;;;;5021679;28;20441;-66
2023/09/22 11:50:32;;;;;;;6.90;0.77;;;21.90;99.90;;;;;;5029784;28;20492;-62
2023/09/22 11:53:17;;;;;;;6.00;0.73;;;23.20;98.50;;;;;;5028944;28;20939;-65
2023/09/22 11:55:47;;;;;;;6.87;0.80;;;23.70;96.70;;;;;;5029327;28;20793;-64
2023/09/22 11:58:15;;;;;;;6.20;0.80;;;24.50;93.20;;;;;;5027363;28;20445;-66
2023/09/22 12:00:44;;;;;;;6.20;0.70;;;25.40;90.50;;;;;;5029627;28;21299;-64
2023/09/22 12:03:12;;;;;;;7.57;0.90;;;25.60;87.20;;;;;;5030819;28;20815;-65
2023/09/22 12:05:40;;;;;;;8.70;0.90;;;25.70;86.90;;;;;;5027739;28;20952;-64
2023/09/22 12:08:09;;;;;;;7.23;0.90;;;25.70;83.50;;;;;;5028117;28;20929;-64
2023/09/22 12:10:40;;;;;;;6.37;0.70;;;24.40;84.20;;;;;;5030944;28;20487;-65
2023/09/22 12:13:08;;;;;;;6.37;0.67;;;23.90;90.50;;;;;;5031327;28;20496;-65
2023/09/22 12:15:36;;;;;;;13.30;1.77;;;23.50;87.20;;;;;;5030967;28;20445;-65
2023/09/22 12:18:05;;;;;;;6.70;0.90;;;23.20;88.80;;;;;;5024235;28;21204;-64
2023/09/22 12:20:33;;;;;;;6.50;0.80;;;22.60;90.30;;;;;;5031300;28;20445;-65
2023/09/22 12:23:01;;;;;;;7.40;0.70;;;22.50;89.90;;;;;;5030539;28;20441;-64
2023/09/22 12:25:29;;;;;;;6.80;1.10;;;23.80;90.70;;;;;;5030710;28;20441;-63
2023/09/22 12:27:58;;;;;;;6.70;0.83;;;25.10;83.90;;;;;;5030030;28;20440;-64
2023/09/22 12:30:26;;;;;;;6.20;0.57;;;24.90;82.60;;;;;;5028131;28;20461;-65
2023/09/22 12:32:54;;;;;;;6.50;0.80;;;24.10;81.60;;;;;;5030464;28;20441;-64
2023/09/22 12:35:23;;;;;;;6.60;0.90;;;23.60;86.30;;;;;;5029445;28;20441;-65
2023/09/22 12:37:52;;;;;;;7.87;1.23;;;22.70;83.10;;;;;;5028160;28;20437;-65
2023/09/22 12:40:20;;;;;;;7.33;0.90;;;21.80;87.10;;;;;;5030153;28;20476;-65
2023/09/22 12:42:48;;;;;;;6.30;0.90;;;21.50;90.00;;;;;;5030697;28;20445;-64
2023/09/22 12:45:19;;;;;;;7.50;0.70;;;21.40;90.70;;;;;;5030713;28;20481;-65
2023/09/22 12:47:47;;;;;;;6.37;0.90;;;21.70;90.70;;;;;;5029895;28;20477;-64
2023/09/22 12:50:15;;;;;;;7.70;0.90;;;22.40;89.40;;;;;;5030659;28;21051;-64
2023/09/22 12:52:43;;;;;;;6.60;1.00;;;23.20;84.10;;;;;;5027390;28;20599;-63
2023/09/22 12:55:11;;;;;;;7.27;0.90;;;23.90;83.90;;;;;;5026354;28;20487;-64
2023/09/22 12:57:40;;;;;;;6.57;0.90;;;25.50;80.20;;;;;;5028897;28;21135;-67